sensor_id;sensor_type;location;lat;lon;timestamp;pressure;altitude;pressure_sealevel;temperature
73685;BMP280;61985;51.070;14.064;2023-07-24T00:01:17;97964.66;;;18.65
73685;BMP280;61985;51.070;14.064;2023-07-24T00:03:43;97959.91;;;18.59
73685;BMP280;61985;51.070;14.064;2023-07-24T00:06:09;97956.44;;;18.53
73685;BMP280;61985;51.070;14.064;2023-07-24T00:08:34;97954.72;;;18.50
73685;BMP280;61985;51.070;14.064;2023-07-24T00:10:59;97944.31;;;18.54
73685;BMP280;61985;51.070;14.064;2023-07-24T00:13:25;97947.31;;;18.45
73685;BMP280;61985;51.070;14.064;2023-07-24T00:15:51;97945.34;;;18.40
73685;BMP280;61985;51.070;14.064;2023-07-24T00:18:16;97941.84;;;18.34
73685;BMP280;61985;51.070;14.064;2023-07-24T00:20:42;97943.63;;;18.26
73685;BMP280;61985;51.070;14.064;2023-07-24T00:23:07;97946.59;;;18.16
73685;BMP280;61985;51.070;14.064;2023-07-24T00:25:32;97941.63;;;17.98
73685;BMP280;61985;51.070;14.064;2023-07-24T00:27:58;97942.38;;;17.87
73685;BMP280;61985;51.070;14.064;2023-07-24T00:30:23;97938.41;;;17.83
73685;BMP280;61985;51.070;14.064;2023-07-24T00:32:48;97940.34;;;17.82
73685;BMP280;61985;51.070;14.064;2023-07-24T00:35:14;97953.50;;;17.84
73685;BMP280;61985;51.070;14.064;2023-07-24T00:37:39;97941.59;;;17.75
73685;BMP280;61985;51.070;14.064;2023-07-24T00:40:05;97932.91;;;17.71
73685;BMP280;61985;51.070;14.064;2023-07-24T00:42:31;97929.91;;;17.69
73685;BMP280;61985;51.070;14.064;2023-07-24T00:44:56;97919.06;;;17.75
73685;BMP280;61985;51.070;14.064;2023-07-24T00:47:22;97924.25;;;17.67
73685;BMP280;61985;51.070;14.064;2023-07-24T00:49:48;97914.81;;;17.68
73685;BMP280;61985;51.070;14.064;2023-07-24T00:52:15;97910.88;;;17.81
73685;BMP280;61985;51.070;14.064;2023-07-24T00:54:40;97908.63;;;17.62
73685;BMP280;61985;51.070;14.064;2023-07-24T00:57:06;97895.53;;;17.72
73685;BMP280;61985;51.070;14.064;2023-07-24T00:59:32;97907.16;;;17.72
73685;BMP280;61985;51.070;14.064;2023-07-24T01:01:58;97912.13;;;17.80
73685;BMP280;61985;51.070;14.064;2023-07-24T01:04:24;97924.78;;;17.83
73685;BMP280;61985;51.070;14.064;2023-07-24T01:06:49;97919.53;;;17.85
73685;BMP280;61985;51.070;14.064;2023-07-24T01:09:15;97921.75;;;17.81
73685;BMP280;61985;51.070;14.064;2023-07-24T01:11:46;97912.59;;;17.72
73685;BMP280;61985;51.070;14.064;2023-07-24T01:14:21;97918.78;;;17.73
73685;BMP280;61985;51.070;14.064;2023-07-24T01:16:48;97912.09;;;17.68
73685;BMP280;61985;51.070;14.064;2023-07-24T01:25:16;97919.31;;;17.77
73685;BMP280;61985;51.070;14.064;2023-07-24T01:27:54;97910.63;;;17.67
73685;BMP280;61985;51.070;14.064;2023-07-24T01:30:31;97909.88;;;17.72
73685;BMP280;61985;51.070;14.064;2023-07-24T01:33:06;97910.84;;;17.69
73685;BMP280;61985;51.070;14.064;2023-07-24T01:35:31;97911.88;;;17.72
73685;BMP280;61985;51.070;14.064;2023-07-24T01:37:58;97919.31;;;17.77
73685;BMP280;61985;51.070;14.064;2023-07-24T01:40:24;97905.66;;;17.71
73685;BMP280;61985;51.070;14.064;2023-07-24T01:42:49;97905.41;;;17.81
73685;BMP280;61985;51.070;14.064;2023-07-24T01:45:15;97898.25;;;17.77
73685;BMP280;61985;51.070;14.064;2023-07-24T01:47:41;97890.56;;;17.76
73685;BMP280;61985;51.070;14.064;2023-07-24T01:50:06;97898.00;;;17.75
73685;BMP280;61985;51.070;14.064;2023-07-24T01:52:32;97892.06;;;17.77
73685;BMP280;61985;51.070;14.064;2023-07-24T01:54:57;97898.50;;;17.80
73685;BMP280;61985;51.070;14.064;2023-07-24T01:57:23;97893.56;;;17.78
73685;BMP280;61985;51.070;14.064;2023-07-24T01:59:48;97893.28;;;17.82
73685;BMP280;61985;51.070;14.064;2023-07-24T02:02:14;97894.03;;;17.82
73685;BMP280;61985;51.070;14.064;2023-07-24T02:04:39;97888.31;;;17.74
73685;BMP280;61985;51.070;14.064;2023-07-24T02:07:05;97883.38;;;17.73
73685;BMP280;61985;51.070;14.064;2023-07-24T02:09:30;97875.94;;;17.68
73685;BMP280;61985;51.070;14.064;2023-07-24T02:11:55;97885.34;;;17.67
73685;BMP280;61985;51.070;14.064;2023-07-24T02:14:21;97886.34;;;17.75
73685;BMP280;61985;51.070;14.064;2023-07-24T02:16:46;97883.13;;;17.82
73685;BMP280;61985;51.070;14.064;2023-07-24T02:19:12;97874.22;;;17.87
73685;BMP280;61985;51.070;14.064;2023-07-24T02:21:37;97874.97;;;17.82
73685;BMP280;61985;51.070;14.064;2023-07-24T02:24:02;97865.78;;;17.80
73685;BMP280;61985;51.070;14.064;2023-07-24T02:26:28;97871.47;;;17.65
73685;BMP280;61985;51.070;14.064;2023-07-24T02:28:53;97870.00;;;17.64
73685;BMP280;61985;51.070;14.064;2023-07-24T02:31:19;97871.97;;;17.52
73685;BMP280;61985;51.070;14.064;2023-07-24T02:33:44;97877.66;;;17.43
73685;BMP280;61985;51.070;14.064;2023-07-24T02:36:09;97879.31;;;17.34
73685;BMP280;61985;51.070;14.064;2023-07-24T02:38:35;97882.56;;;17.27
73685;BMP280;61985;51.070;14.064;2023-07-24T02:41:00;97891.69;;;17.24
73685;BMP280;61985;51.070;14.064;2023-07-24T02:43:26;97887.25;;;17.21
73685;BMP280;61985;51.070;14.064;2023-07-24T02:45:51;97893.16;;;17.20
73685;BMP280;61985;51.070;14.064;2023-07-24T02:48:16;97885.50;;;17.24
73685;BMP280;61985;51.070;14.064;2023-07-24T02:50:42;97884.28;;;17.30
73685;BMP280;61985;51.070;14.064;2023-07-24T02:53:07;97885.31;;;17.39
73685;BMP280;61985;51.070;14.064;2023-07-24T02:55:33;97873.94;;;17.46
73685;BMP280;61985;51.070;14.064;2023-07-24T02:57:58;97874.94;;;17.54
73685;BMP280;61985;51.070;14.064;2023-07-24T03:00:24;97869.75;;;17.62
73685;BMP280;61985;51.070;14.064;2023-07-24T03:02:50;97870.97;;;17.66
73685;BMP280;61985;51.070;14.064;2023-07-24T03:05:16;97868.50;;;17.68
73685;BMP280;61985;51.070;14.064;2023-07-24T03:07:41;97871.25;;;17.74
73685;BMP280;61985;51.070;14.064;2023-07-24T03:10:07;97870.00;;;17.75
73685;BMP280;61985;51.070;14.064;2023-07-24T03:12:33;97872.50;;;17.79
73685;BMP280;61985;51.070;14.064;2023-07-24T03:14:58;97881.91;;;17.83
73685;BMP280;61985;51.070;14.064;2023-07-24T03:17:24;97880.69;;;17.84
73685;BMP280;61985;51.070;14.064;2023-07-24T03:19:49;97877.44;;;17.86
73685;BMP280;61985;51.070;14.064;2023-07-24T03:22:15;97880.41;;;17.88
73685;BMP280;61985;51.070;14.064;2023-07-24T03:24:40;97874.22;;;17.93
73685;BMP280;61985;51.070;14.064;2023-07-24T03:27:06;97878.19;;;18.03
73685;BMP280;61985;51.070;14.064;2023-07-24T03:29:31;97876.69;;;18.08
73685;BMP280;61985;51.070;14.064;2023-07-24T03:31:57;97872.47;;;18.12
73685;BMP280;61985;51.070;14.064;2023-07-24T03:34:22;97878.66;;;18.18
73685;BMP280;61985;51.070;14.064;2023-07-24T03:36:47;97878.91;;;18.26
73685;BMP280;61985;51.070;14.064;2023-07-24T03:39:13;97878.44;;;18.28
73685;BMP280;61985;51.070;14.064;2023-07-24T03:41:39;97875.66;;;18.33
73685;BMP280;61985;51.070;14.064;2023-07-24T03:44:04;97868.47;;;18.36
73685;BMP280;61985;51.070;14.064;2023-07-24T03:46:32;97854.06;;;18.41
73685;BMP280;61985;51.070;14.064;2023-07-24T03:48:57;97854.84;;;18.42
73685;BMP280;61985;51.070;14.064;2023-07-24T03:51:23;97862.50;;;18.43
73685;BMP280;61985;51.070;14.064;2023-07-24T03:53:48;97861.53;;;18.46
73685;BMP280;61985;51.070;14.064;2023-07-24T03:56:14;97846.38;;;18.51
73685;BMP280;61985;51.070;14.064;2023-07-24T03:58:39;97855.53;;;18.53
73685;BMP280;61985;51.070;14.064;2023-07-24T04:01:05;97847.59;;;18.55
73685;BMP280;61985;51.070;14.064;2023-07-24T04:03:30;97854.53;;;18.56
73685;BMP280;61985;51.070;14.064;2023-07-24T04:05:56;97847.59;;;18.55
73685;BMP280;61985;51.070;14.064;2023-07-24T04:08:21;97842.88;;;18.56
73685;BMP280;61985;51.070;14.064;2023-07-24T04:10:47;97845.34;;;18.59
73685;BMP280;61985;51.070;14.064;2023-07-24T04:13:29;97836.91;;;18.63
73685;BMP280;61985;51.070;14.064;2023-07-24T04:15:55;97833.19;;;18.60
73685;BMP280;61985;51.070;14.064;2023-07-24T04:18:22;97831.69;;;18.59
73685;BMP280;61985;51.070;14.064;2023-07-24T04:20:47;97826.00;;;18.57
73685;BMP280;61985;51.070;14.064;2023-07-24T04:23:13;97812.88;;;18.62
73685;BMP280;61985;51.070;14.064;2023-07-24T04:25:38;97819.28;;;18.70
73685;BMP280;61985;51.070;14.064;2023-07-24T04:28:03;97804.09;;;18.80
73685;BMP280;61985;51.070;14.064;2023-07-24T04:30:29;97810.00;;;18.90
73685;BMP280;61985;51.070;14.064;2023-07-24T04:32:54;97806.25;;;18.98
73685;BMP280;61985;51.070;14.064;2023-07-24T04:35:19;97806.16;;;19.04
73685;BMP280;61985;51.070;14.064;2023-07-24T04:37:45;97814.31;;;19.15
73685;BMP280;61985;51.070;14.064;2023-07-24T04:40:11;97811.78;;;19.23
73685;BMP280;61985;51.070;14.064;2023-07-24T04:42:36;97808.56;;;19.25
73685;BMP280;61985;51.070;14.064;2023-07-24T04:45:02;97804.53;;;19.31
73685;BMP280;61985;51.070;14.064;2023-07-24T04:47:27;97806.44;;;19.42
73685;BMP280;61985;51.070;14.064;2023-07-24T04:49:53;97808.38;;;19.47
73685;BMP280;61985;51.070;14.064;2023-07-24T04:52:18;97809.84;;;19.54
73685;BMP280;61985;51.070;14.064;2023-07-24T04:54:44;97807.03;;;19.59
73685;BMP280;61985;51.070;14.064;2023-07-24T04:57:09;97813.94;;;19.66
73685;BMP280;61985;51.070;14.064;2023-07-24T04:59:34;97809.72;;;19.65
73685;BMP280;61985;51.070;14.064;2023-07-24T05:02:00;97801.31;;;19.63
73685;BMP280;61985;51.070;14.064;2023-07-24T05:04:25;97803.97;;;19.69
73685;BMP280;61985;51.070;14.064;2023-07-24T05:06:51;97797.69;;;19.74
73685;BMP280;61985;51.070;14.064;2023-07-24T05:09:16;97791.47;;;19.79
73685;BMP280;61985;51.070;14.064;2023-07-24T05:11:41;97789.44;;;19.85
73685;BMP280;61985;51.070;14.064;2023-07-24T05:14:10;97787.63;;;19.87
73685;BMP280;61985;51.070;14.064;2023-07-24T05:16:35;97778.66;;;19.93
73685;BMP280;61985;51.070;14.064;2023-07-24T05:24:10;97775.78;;;20.28
73685;BMP280;61985;51.070;14.064;2023-07-24T05:26:35;97779.03;;;20.46
73685;BMP280;61985;51.070;14.064;2023-07-24T05:29:00;97782.38;;;20.58
73685;BMP280;61985;51.070;14.064;2023-07-24T05:31:26;97774.53;;;20.67
73685;BMP280;61985;51.070;14.064;2023-07-24T05:33:51;97781.09;;;20.78
73685;BMP280;61985;51.070;14.064;2023-07-24T05:36:17;97777.84;;;20.79
73685;BMP280;61985;51.070;14.064;2023-07-24T05:38:42;97788.94;;;20.87
73685;BMP280;61985;51.070;14.064;2023-07-24T05:41:07;97789.81;;;20.95
73685;BMP280;61985;51.070;14.064;2023-07-24T05:43:33;97788.50;;;21.02
73685;BMP280;61985;51.070;14.064;2023-07-24T05:45:58;97793.22;;;21.01
73685;BMP280;61985;51.070;14.064;2023-07-24T05:48:24;97788.25;;;21.00
73685;BMP280;61985;51.070;14.064;2023-07-24T05:50:49;97787.00;;;21.01
73685;BMP280;61985;51.070;14.064;2023-07-24T05:53:15;97789.53;;;20.99
73685;BMP280;61985;51.070;14.064;2023-07-24T05:55:41;97787.75;;;21.01
73685;BMP280;61985;51.070;14.064;2023-07-24T05:58:08;97777.97;;;21.06
73685;BMP280;61985;51.070;14.064;2023-07-24T06:00:33;97786.09;;;21.11
73685;BMP280;61985;51.070;14.064;2023-07-24T06:02:59;97776.81;;;21.14
73685;BMP280;61985;51.070;14.064;2023-07-24T06:05:24;97782.63;;;21.24
73685;BMP280;61985;51.070;14.064;2023-07-24T06:07:49;97775.81;;;21.31
73685;BMP280;61985;51.070;14.064;2023-07-24T06:10:15;97782.69;;;21.38
73685;BMP280;61985;51.070;14.064;2023-07-24T06:12:40;97787.53;;;21.45
73685;BMP280;61985;51.070;14.064;2023-07-24T06:15:06;97782.16;;;21.52
73685;BMP280;61985;51.070;14.064;2023-07-24T06:17:32;97781.56;;;21.60
73685;BMP280;61985;51.070;14.064;2023-07-24T06:19:57;97782.31;;;21.73
73685;BMP280;61985;51.070;14.064;2023-07-24T06:22:23;97774.50;;;21.91
73685;BMP280;61985;51.070;14.064;2023-07-24T06:24:48;97782.72;;;22.17
73685;BMP280;61985;51.070;14.064;2023-07-24T06:27:14;97787.16;;;22.20
73685;BMP280;61985;51.070;14.064;2023-07-24T06:29:40;97774.81;;;22.27
73685;BMP280;61985;51.070;14.064;2023-07-24T06:32:05;97778.88;;;22.47
73685;BMP280;61985;51.070;14.064;2023-07-24T06:34:44;97771.06;;;22.72
73685;BMP280;61985;51.070;14.064;2023-07-24T06:37:16;97767.00;;;23.07
73685;BMP280;61985;51.070;14.064;2023-07-24T06:39:42;97768.56;;;23.45
73685;BMP280;61985;51.070;14.064;2023-07-24T06:42:08;97765.44;;;23.69
73685;BMP280;61985;51.070;14.064;2023-07-24T06:44:34;97764.50;;;23.74
73685;BMP280;61985;51.070;14.064;2023-07-24T06:46:59;97776.91;;;23.60
73685;BMP280;61985;51.070;14.064;2023-07-24T06:49:24;97775.44;;;23.59
73685;BMP280;61985;51.070;14.064;2023-07-24T06:51:50;97777.50;;;23.66
73685;BMP280;61985;51.070;14.064;2023-07-24T06:54:15;97775.03;;;23.84
73685;BMP280;61985;51.070;14.064;2023-07-24T06:56:40;97777.84;;;23.99
73685;BMP280;61985;51.070;14.064;2023-07-24T06:59:06;97770.13;;;23.97
73685;BMP280;61985;51.070;14.064;2023-07-24T07:01:31;97777.13;;;23.98
73685;BMP280;61985;51.070;14.064;2023-07-24T07:03:56;97773.78;;;23.92
73685;BMP280;61985;51.070;14.064;2023-07-24T07:06:22;97775.31;;;24.01
73685;BMP280;61985;51.070;14.064;2023-07-24T07:08:47;97774.97;;;24.12
73685;BMP280;61985;51.070;14.064;2023-07-24T07:11:13;97767.28;;;24.18
73685;BMP280;61985;51.070;14.064;2023-07-24T07:13:38;97766.19;;;24.21
73685;BMP280;61985;51.070;14.064;2023-07-24T07:16:03;97765.28;;;24.19
73685;BMP280;61985;51.070;14.064;2023-07-24T07:18:29;97764.03;;;24.28
73685;BMP280;61985;51.070;14.064;2023-07-24T07:20:54;97764.63;;;24.41
73685;BMP280;61985;51.070;14.064;2023-07-24T07:23:20;97771.81;;;24.52
73685;BMP280;61985;51.070;14.064;2023-07-24T07:25:46;97769.25;;;24.70
73685;BMP280;61985;51.070;14.064;2023-07-24T07:28:12;97770.56;;;24.84
73685;BMP280;61985;51.070;14.064;2023-07-24T07:30:39;97761.94;;;24.95
73685;BMP280;61985;51.070;14.064;2023-07-24T07:33:04;97754.22;;;25.24
73685;BMP280;61985;51.070;14.064;2023-07-24T07:35:32;97759.69;;;25.32
73685;BMP280;61985;51.070;14.064;2023-07-24T07:37:57;97764.88;;;25.28
73685;BMP280;61985;51.070;14.064;2023-07-24T07:40:23;97757.69;;;25.25
73685;BMP280;61985;51.070;14.064;2023-07-24T07:42:49;97760.84;;;25.14
73685;BMP280;61985;51.070;14.064;2023-07-24T07:45:14;97751.66;;;25.03
73685;BMP280;61985;51.070;14.064;2023-07-24T07:47:39;97750.91;;;25.11
73685;BMP280;61985;51.070;14.064;2023-07-24T07:50:05;97754.41;;;25.03
73685;BMP280;61985;51.070;14.064;2023-07-24T07:52:30;97743.19;;;25.01
73685;BMP280;61985;51.070;14.064;2023-07-24T07:54:56;97740.78;;;25.05
73685;BMP280;61985;51.070;14.064;2023-07-24T07:57:21;97735.81;;;25.12
73685;BMP280;61985;51.070;14.064;2023-07-24T07:59:46;97742.81;;;24.97
73685;BMP280;61985;51.070;14.064;2023-07-24T08:02:12;97738.59;;;24.96
73685;BMP280;61985;51.070;14.064;2023-07-24T08:04:37;97736.97;;;24.85
73685;BMP280;61985;51.070;14.064;2023-07-24T08:07:03;97731.63;;;24.80
73685;BMP280;61985;51.070;14.064;2023-07-24T08:09:28;97730.53;;;24.68
73685;BMP280;61985;51.070;14.064;2023-07-24T08:11:54;97723.16;;;24.62
73685;BMP280;61985;51.070;14.064;2023-07-24T08:14:19;97725.16;;;24.47
73685;BMP280;61985;51.070;14.064;2023-07-24T08:16:44;97715.59;;;24.40
73685;BMP280;61985;51.070;14.064;2023-07-24T08:19:12;97713.03;;;24.42
73685;BMP280;61985;51.070;14.064;2023-07-24T08:21:38;97707.72;;;24.36
73685;BMP280;61985;51.070;14.064;2023-07-24T08:24:04;97714.13;;;24.39
73685;BMP280;61985;51.070;14.064;2023-07-24T08:26:30;97720.00;;;24.43
73685;BMP280;61985;51.070;14.064;2023-07-24T08:28:55;97716.03;;;24.67
73685;BMP280;61985;51.070;14.064;2023-07-24T08:31:20;97711.06;;;24.81
73685;BMP280;61985;51.070;14.064;2023-07-24T08:33:46;97703.53;;;24.89
73685;BMP280;61985;51.070;14.064;2023-07-24T08:36:11;97700.56;;;25.02
73685;BMP280;61985;51.070;14.064;2023-07-24T08:38:37;97690.97;;;25.26
73685;BMP280;61985;51.070;14.064;2023-07-24T08:41:04;97696.84;;;25.38
73685;BMP280;61985;51.070;14.064;2023-07-24T08:43:30;97698.78;;;25.53
73685;BMP280;61985;51.070;14.064;2023-07-24T08:45:57;97694.84;;;25.79
73685;BMP280;61985;51.070;14.064;2023-07-24T08:48:23;97690.28;;;26.07
73685;BMP280;61985;51.070;14.064;2023-07-24T08:50:50;97674.38;;;26.23
73685;BMP280;61985;51.070;14.064;2023-07-24T08:53:16;97683.66;;;26.02
73685;BMP280;61985;51.070;14.064;2023-07-24T08:55:43;97682.69;;;26.15
73685;BMP280;61985;51.070;14.064;2023-07-24T08:58:10;97674.69;;;26.27
73685;BMP280;61985;51.070;14.064;2023-07-24T09:00:35;97662.28;;;26.35
73685;BMP280;61985;51.070;14.064;2023-07-24T09:03:00;97658.00;;;26.42
73685;BMP280;61985;51.070;14.064;2023-07-24T09:05:26;97661.22;;;26.56
73685;BMP280;61985;51.070;14.064;2023-07-24T09:07:53;97666.44;;;26.69
73685;BMP280;61985;51.070;14.064;2023-07-24T09:10:24;97663.84;;;26.88
73685;BMP280;61985;51.070;14.064;2023-07-24T09:12:50;97660.91;;;27.04
73685;BMP280;61985;51.070;14.064;2023-07-24T09:15:16;97659.34;;;26.93
73685;BMP280;61985;51.070;14.064;2023-07-24T09:17:59;97656.44;;;27.08
73685;BMP280;61985;51.070;14.064;2023-07-24T09:27:35;97659.16;;;27.61
73685;BMP280;61985;51.070;14.064;2023-07-24T09:33:57;97656.41;;;27.61
73685;BMP280;61985;51.070;14.064;2023-07-24T09:36:23;97652.31;;;27.62
73685;BMP280;61985;51.070;14.064;2023-07-24T09:38:48;97651.84;;;27.55
73685;BMP280;61985;51.070;14.064;2023-07-24T09:41:13;97642.91;;;27.74
73685;BMP280;61985;51.070;14.064;2023-07-24T09:43:41;97644.19;;;27.64
73685;BMP280;61985;51.070;14.064;2023-07-24T09:46:07;97629.56;;;27.90
73685;BMP280;61985;51.070;14.064;2023-07-24T09:48:33;97621.16;;;27.98
73685;BMP280;61985;51.070;14.064;2023-07-24T09:51:00;97627.00;;;28.02
73685;BMP280;61985;51.070;14.064;2023-07-24T09:53:39;97630.34;;;28.00
73685;BMP280;61985;51.070;14.064;2023-07-24T09:56:09;97628.38;;;28.11
73685;BMP280;61985;51.070;14.064;2023-07-24T09:58:37;97626.63;;;28.25
73685;BMP280;61985;51.070;14.064;2023-07-24T10:01:04;97628.63;;;28.15
73685;BMP280;61985;51.070;14.064;2023-07-24T10:03:32;97629.91;;;28.04
73685;BMP280;61985;51.070;14.064;2023-07-24T10:05:59;97629.00;;;27.92
73685;BMP280;61985;51.070;14.064;2023-07-24T10:08:25;97626.06;;;27.90
73685;BMP280;61985;51.070;14.064;2023-07-24T10:10:50;97630.59;;;27.85
73685;BMP280;61985;51.070;14.064;2023-07-24T10:13:19;97629.22;;;27.76
73685;BMP280;61985;51.070;14.064;2023-07-24T10:15:46;97613.81;;;27.83
73685;BMP280;61985;51.070;14.064;2023-07-24T10:18:12;97615.97;;;27.75
73685;BMP280;61985;51.070;14.064;2023-07-24T10:20:40;97619.63;;;27.77
73685;BMP280;61985;51.070;14.064;2023-07-24T10:23:09;97617.41;;;27.66
73685;BMP280;61985;51.070;14.064;2023-07-24T10:25:37;97623.50;;;27.65
73685;BMP280;61985;51.070;14.064;2023-07-24T10:28:07;97621.66;;;27.77
73685;BMP280;61985;51.070;14.064;2023-07-24T10:30:35;97622.97;;;27.76
73685;BMP280;61985;51.070;14.064;2023-07-24T10:33:11;97630.16;;;27.89
73685;BMP280;61985;51.070;14.064;2023-07-24T10:35:42;97630.50;;;28.02
73685;BMP280;61985;51.070;14.064;2023-07-24T10:38:08;97630.69;;;27.77
73685;BMP280;61985;51.070;14.064;2023-07-24T10:40:33;97626.00;;;27.70
73685;BMP280;61985;51.070;14.064;2023-07-24T10:43:09;97636.09;;;27.58
73685;BMP280;61985;51.070;14.064;2023-07-24T10:45:48;97634.63;;;27.47
73685;BMP280;61985;51.070;14.064;2023-07-24T10:48:14;97638.22;;;27.23
73685;BMP280;61985;51.070;14.064;2023-07-24T10:50:41;97644.41;;;27.13
73685;BMP280;61985;51.070;14.064;2023-07-24T10:53:08;97644.84;;;26.93
73685;BMP280;61985;51.070;14.064;2023-07-24T10:55:34;97651.88;;;26.68
73685;BMP280;61985;51.070;14.064;2023-07-24T10:58:00;97684.53;;;26.37
73685;BMP280;61985;51.070;14.064;2023-07-24T11:00:26;97687.06;;;25.85
73685;BMP280;61985;51.070;14.064;2023-07-24T11:02:53;97674.34;;;25.49
73685;BMP280;61985;51.070;14.064;2023-07-24T11:05:20;97671.53;;;25.01
73685;BMP280;61985;51.070;14.064;2023-07-24T11:07:46;97670.09;;;24.70
73685;BMP280;61985;51.070;14.064;2023-07-24T11:10:24;97674.31;;;24.40
73685;BMP280;61985;51.070;14.064;2023-07-24T11:12:49;97668.06;;;24.32
73685;BMP280;61985;51.070;14.064;2023-07-24T11:15:24;97660.53;;;24.25
73685;BMP280;61985;51.070;14.064;2023-07-24T11:17:51;97651.47;;;23.93
73685;BMP280;61985;51.070;14.064;2023-07-24T11:20:16;97658.53;;;23.66
73685;BMP280;61985;51.070;14.064;2023-07-24T11:22:43;97670.56;;;23.55
73685;BMP280;61985;51.070;14.064;2023-07-24T11:25:10;97658.63;;;23.52
73685;BMP280;61985;51.070;14.064;2023-07-24T11:27:43;97661.97;;;23.59
73685;BMP280;61985;51.070;14.064;2023-07-24T11:30:18;97660.66;;;23.52
73685;BMP280;61985;51.070;14.064;2023-07-24T11:32:44;97646.78;;;23.65
73685;BMP280;61985;51.070;14.064;2023-07-24T11:35:10;97653.41;;;23.77
73685;BMP280;61985;51.070;14.064;2023-07-24T11:37:36;97643.41;;;24.03
73685;BMP280;61985;51.070;14.064;2023-07-24T11:40:03;97638.34;;;24.38
73685;BMP280;61985;51.070;14.064;2023-07-24T11:42:40;97638.13;;;24.82
73685;BMP280;61985;51.070;14.064;2023-07-24T11:45:07;97625.66;;;24.81
73685;BMP280;61985;51.070;14.064;2023-07-24T11:47:45;97625.09;;;24.90
73685;BMP280;61985;51.070;14.064;2023-07-24T11:50:11;97621.78;;;24.92
73685;BMP280;61985;51.070;14.064;2023-07-24T11:52:40;97622.28;;;24.98
73685;BMP280;61985;51.070;14.064;2023-07-24T11:55:09;97612.91;;;25.08
73685;BMP280;61985;51.070;14.064;2023-07-24T11:57:34;97606.81;;;25.18
73685;BMP280;61985;51.070;14.064;2023-07-24T11:59:59;97605.94;;;25.07
73685;BMP280;61985;51.070;14.064;2023-07-24T12:02:26;97593.25;;;25.12
73685;BMP280;61985;51.070;14.064;2023-07-24T12:04:56;97595.03;;;25.25
73685;BMP280;61985;51.070;14.064;2023-07-24T12:07:30;97588.25;;;25.26
73685;BMP280;61985;51.070;14.064;2023-07-24T12:09:56;97590.25;;;25.25
73685;BMP280;61985;51.070;14.064;2023-07-24T12:12:21;97590.47;;;25.20
73685;BMP280;61985;51.070;14.064;2023-07-24T12:14:47;97593.22;;;25.20
73685;BMP280;61985;51.070;14.064;2023-07-24T12:17:18;97588.06;;;25.24
73685;BMP280;61985;51.070;14.064;2023-07-24T12:19:43;97581.53;;;24.96
73685;BMP280;61985;51.070;14.064;2023-07-24T12:22:09;97579.38;;;24.87
73685;BMP280;61985;51.070;14.064;2023-07-24T12:24:34;97574.56;;;24.95
73685;BMP280;61985;51.070;14.064;2023-07-24T12:27:00;97574.56;;;24.95
73685;BMP280;61985;51.070;14.064;2023-07-24T12:29:25;97572.22;;;24.84
73685;BMP280;61985;51.070;14.064;2023-07-24T12:31:51;97579.72;;;24.83
73685;BMP280;61985;51.070;14.064;2023-07-24T12:34:16;97570.56;;;24.81
73685;BMP280;61985;51.070;14.064;2023-07-24T12:36:41;97568.72;;;24.76
73685;BMP280;61985;51.070;14.064;2023-07-24T12:39:07;97565.44;;;24.70
73685;BMP280;61985;51.070;14.064;2023-07-24T12:41:32;97559.56;;;24.65
73685;BMP280;61985;51.070;14.064;2023-07-24T12:43:57;97551.13;;;24.63
73685;BMP280;61985;51.070;14.064;2023-07-24T12:46:23;97549.66;;;24.62
73685;BMP280;61985;51.070;14.064;2023-07-24T12:48:48;97555.91;;;24.63
73685;BMP280;61985;51.070;14.064;2023-07-24T12:51:13;97560.50;;;24.53
73685;BMP280;61985;51.070;14.064;2023-07-24T12:53:39;97554.47;;;24.47
73685;BMP280;61985;51.070;14.064;2023-07-24T12:56:04;97553.00;;;24.46
73685;BMP280;61985;51.070;14.064;2023-07-24T12:58:30;97551.91;;;24.41
73685;BMP280;61985;51.070;14.064;2023-07-24T13:00:55;97555.53;;;24.36
73685;BMP280;61985;51.070;14.064;2023-07-24T13:03:20;97554.66;;;24.33
73685;BMP280;61985;51.070;14.064;2023-07-24T13:05:47;97557.22;;;24.31
73685;BMP280;61985;51.070;14.064;2023-07-24T13:08:15;97562.53;;;24.29
73685;BMP280;61985;51.070;14.064;2023-07-24T13:10:40;97565.66;;;24.18
73685;BMP280;61985;51.070;14.064;2023-07-24T13:13:06;97573.16;;;24.02
73685;BMP280;61985;51.070;14.064;2023-07-24T13:15:31;97586.34;;;23.81
73685;BMP280;61985;51.070;14.064;2023-07-24T13:17:57;97588.81;;;23.55
73685;BMP280;61985;51.070;14.064;2023-07-24T13:20:24;97593.47;;;23.24
73685;BMP280;61985;51.070;14.064;2023-07-24T13:22:49;97594.81;;;23.02
73685;BMP280;61985;51.070;14.064;2023-07-24T13:25:14;97594.19;;;22.67
73685;BMP280;61985;51.070;14.064;2023-07-24T13:27:43;97606.94;;;22.36
73685;BMP280;61985;51.070;14.064;2023-07-24T13:30:08;97582.09;;;22.00
73685;BMP280;61985;51.070;14.064;2023-07-24T13:32:34;97576.34;;;21.77
73685;BMP280;61985;51.070;14.064;2023-07-24T13:34:59;97576.94;;;21.62
73685;BMP280;61985;51.070;14.064;2023-07-24T13:37:25;97558.53;;;22.05
73685;BMP280;61985;51.070;14.064;2023-07-24T13:39:51;97523.91;;;22.93
73685;BMP280;61985;51.070;14.064;2023-07-24T13:42:16;97516.66;;;23.78
73685;BMP280;61985;51.070;14.064;2023-07-24T13:44:42;97529.47;;;24.68
73685;BMP280;61985;51.070;14.064;2023-07-24T13:47:07;97520.31;;;25.05
73685;BMP280;61985;51.070;14.064;2023-07-24T13:49:32;97521.03;;;25.46
73685;BMP280;61985;51.070;14.064;2023-07-24T13:51:58;97525.31;;;24.99
73685;BMP280;61985;51.070;14.064;2023-07-24T13:54:23;97516.84;;;25.05
73685;BMP280;61985;51.070;14.064;2023-07-24T13:56:49;97502.34;;;25.04
73685;BMP280;61985;51.070;14.064;2023-07-24T13:59:14;97511.47;;;24.67
73685;BMP280;61985;51.070;14.064;2023-07-24T14:01:39;97507.38;;;24.75
73685;BMP280;61985;51.070;14.064;2023-07-24T14:04:05;97497.09;;;24.76
73685;BMP280;61985;51.070;14.064;2023-07-24T14:06:30;97488.59;;;24.33
73685;BMP280;61985;51.070;14.064;2023-07-24T14:08:55;97486.16;;;24.60
73685;BMP280;61985;51.070;14.064;2023-07-24T14:11:21;97476.50;;;24.92
73685;BMP280;61985;51.070;14.064;2023-07-24T14:13:47;97464.88;;;25.34